createdAt,value
2023-04-14T00:01:52.458Z,5.27
2023-04-14T00:04:21.075Z,5.27
2023-04-14T00:06:49.133Z,5.25
2023-04-14T00:09:16.801Z,5.25
2023-04-14T00:11:44.740Z,5.25
2023-04-14T00:14:12.292Z,5.23
2023-04-14T00:16:43.002Z,5.22
2023-04-14T00:19:11.190Z,5.21
2023-04-14T00:21:38.773Z,5.24
2023-04-14T00:24:06.442Z,5.26
2023-04-14T00:26:34.199Z,5.31
2023-04-14T00:29:02.290Z,5.35
2023-04-14T00:31:30.524Z,5.39
2023-04-14T00:33:58.177Z,5.38
2023-04-14T00:36:25.894Z,5.35
2023-04-14T00:38:53.579Z,5.29
2023-04-14T00:41:21.207Z,5.23
2023-04-14T00:43:49.161Z,5.15
2023-04-14T00:46:17.547Z,5.04
2023-04-14T00:48:45.194Z,4.98
2023-04-14T00:51:12.759Z,4.91
2023-04-14T00:53:40.717Z,4.87
2023-04-14T00:56:09.143Z,4.81
2023-04-14T00:58:36.774Z,4.77
2023-04-14T01:01:04.454Z,4.79
2023-04-14T01:03:32.281Z,4.82
2023-04-14T01:06:00.073Z,4.84
2023-04-14T01:08:27.813Z,4.86
2023-04-14T01:10:55.472Z,4.92
2023-04-14T01:13:23.068Z,5.00
2023-04-14T01:15:50.785Z,5.06
2023-04-14T01:18:20.092Z,5.15
2023-04-14T01:20:48.093Z,5.20
2023-04-14T01:23:15.719Z,5.27
2023-04-14T01:25:43.286Z,5.34
2023-04-14T01:28:10.938Z,5.39
2023-04-14T01:30:38.911Z,5.43
2023-04-14T01:33:06.834Z,5.46
2023-04-14T01:35:34.417Z,5.47
2023-04-14T01:38:02.105Z,5.47
2023-04-14T01:40:30.134Z,5.45
2023-04-14T01:42:57.862Z,5.43
2023-04-14T01:45:25.589Z,5.41
2023-04-14T01:47:53.261Z,5.38
2023-04-14T01:50:20.958Z,5.37
2023-04-14T01:52:48.935Z,5.35
2023-04-14T01:55:16.555Z,5.35
2023-04-14T01:57:44.548Z,5.33
2023-04-14T02:00:12.172Z,5.35
2023-04-14T02:02:39.794Z,5.33
2023-04-14T02:05:07.476Z,5.33
2023-04-14T02:07:35.185Z,5.35
2023-04-14T02:10:03.252Z,5.36
2023-04-14T02:12:30.830Z,5.37
2023-04-14T02:14:58.433Z,5.37
2023-04-14T02:17:26.103Z,5.38
2023-04-14T02:19:53.917Z,5.41
2023-04-14T02:22:21.878Z,5.44
2023-04-14T02:24:49.742Z,5.48
2023-04-14T02:27:17.412Z,5.51
2023-04-14T02:29:45.014Z,5.54
2023-04-14T02:32:12.831Z,5.57
2023-04-14T02:34:40.791Z,5.59
2023-04-14T02:37:08.411Z,5.62
2023-04-14T02:39:36.866Z,5.63
2023-04-14T02:42:08.144Z,5.63
2023-04-14T02:44:35.987Z,5.66
2023-04-14T02:47:04.408Z,5.69
2023-04-14T02:49:31.965Z,5.74
2023-04-14T02:51:59.588Z,5.77
2023-04-14T02:54:27.226Z,5.75
2023-04-14T02:56:55.070Z,5.74
2023-04-14T02:59:23.189Z,5.72
2023-04-14T03:01:50.910Z,5.70
2023-04-14T03:04:18.612Z,5.65
2023-04-14T03:06:46.309Z,5.59
2023-04-14T03:09:15.091Z,5.53
2023-04-14T03:11:43.045Z,5.47
2023-04-14T03:14:10.683Z,5.37
2023-04-14T03:16:39.548Z,5.29
2023-04-14T03:19:08.052Z,5.18
2023-04-14T03:21:35.720Z,5.09
2023-04-14T03:24:03.318Z,4.98
2023-04-14T03:26:31.144Z,4.89
2023-04-14T03:28:59.111Z,4.82
2023-04-14T03:31:26.884Z,4.73
2023-04-14T03:33:56.563Z,4.63
2023-04-14T03:36:24.531Z,4.56
2023-04-14T03:38:55.447Z,4.48
2023-04-14T03:41:23.006Z,4.42
2023-04-14T03:43:52.307Z,4.36
2023-04-14T03:46:20.157Z,4.31
2023-04-14T03:48:49.033Z,4.25
2023-04-14T03:51:17.182Z,4.23
2023-04-14T03:53:44.787Z,4.20
2023-04-14T03:56:13.536Z,4.19
2023-04-14T03:58:41.243Z,4.19
2023-04-14T04:01:09.158Z,4.18
2023-04-14T04:03:38.660Z,4.14
2023-04-14T04:06:06.532Z,4.14
2023-04-14T04:08:34.208Z,4.10
2023-04-14T04:11:01.837Z,4.07
2023-04-14T04:13:30.134Z,4.05
2023-04-14T04:15:57.716Z,4.02
2023-04-14T04:18:25.310Z,3.98
2023-04-14T04:20:53.007Z,3.95
2023-04-14T04:23:20.834Z,3.92
2023-04-14T04:25:48.538Z,3.89
2023-04-14T04:28:16.204Z,3.85
2023-04-14T04:30:43.793Z,3.84
2023-04-14T04:33:11.428Z,3.80
2023-04-14T04:35:41.285Z,3.78
2023-04-14T04:38:11.742Z,3.73
2023-04-14T04:40:39.601Z,3.73
2023-04-14T04:43:07.199Z,3.73
2023-04-14T04:45:36.610Z,3.72
2023-04-14T04:48:04.797Z,3.70
2023-04-14T04:50:32.902Z,3.69
2023-04-14T04:53:00.753Z,3.67
2023-04-14T04:55:28.364Z,3.69
2023-04-14T04:57:56.445Z,3.71
2023-04-14T05:00:26.234Z,3.71
2023-04-14T05:02:54.301Z,3.74
2023-04-14T05:05:22.029Z,3.75
2023-04-14T05:07:49.613Z,3.78
2023-04-14T05:10:17.247Z,3.80
2023-04-14T05:12:45.061Z,3.84
2023-04-14T05:15:13.022Z,3.86
2023-04-14T05:17:40.779Z,3.91
2023-04-14T05:20:09.047Z,3.96
2023-04-14T05:22:36.621Z,4.02
2023-04-14T05:25:04.293Z,4.07
2023-04-14T05:27:32.148Z,4.13
2023-04-14T05:29:59.733Z,4.21
2023-04-14T05:32:29.226Z,4.27
2023-04-14T05:34:57.988Z,4.33
2023-04-14T05:37:25.743Z,4.41
2023-04-14T05:39:53.748Z,4.54
2023-04-14T05:42:24.559Z,4.65
2023-04-14T05:44:52.141Z,4.78
2023-04-14T05:47:19.784Z,4.92
2023-04-14T05:49:47.778Z,5.10
2023-04-14T05:52:15.768Z,5.24
2023-04-14T05:54:43.489Z,5.36
2023-04-14T05:57:11.345Z,5.45
2023-04-14T05:59:39.022Z,5.56
2023-04-14T06:02:07.533Z,5.69
2023-04-14T06:04:36.539Z,5.82
2023-04-14T06:07:04.347Z,5.91
2023-04-14T06:09:32.291Z,6.01
2023-04-14T06:12:00.064Z,6.13
2023-04-14T06:14:27.758Z,6.31
2023-04-14T06:16:55.837Z,6.47
2023-04-14T06:19:23.541Z,6.66
2023-04-14T06:21:52.025Z,6.83
2023-04-14T06:24:19.776Z,6.97
2023-04-14T06:26:48.495Z,7.12
2023-04-14T06:29:16.667Z,7.24
2023-04-14T06:31:44.430Z,7.34
2023-04-14T06:34:12.430Z,7.44
2023-04-14T06:36:40.120Z,7.52
2023-04-14T06:39:07.851Z,7.61
2023-04-14T06:41:35.875Z,7.73
2023-04-14T06:44:03.576Z,7.84
2023-04-14T06:46:31.414Z,7.96
2023-04-14T06:48:59.864Z,8.06
2023-04-14T06:51:28.063Z,8.20
2023-04-14T06:53:56.110Z,8.34
2023-04-14T06:56:24.019Z,8.49
2023-04-14T06:58:51.834Z,8.63
2023-04-14T07:01:19.738Z,8.75
2023-04-14T07:03:47.607Z,8.90
2023-04-14T07:06:17.502Z,9.05
2023-04-14T07:08:46.890Z,9.19
2023-04-14T07:11:15.086Z,9.34
2023-04-14T07:13:42.834Z,9.47
2023-04-14T07:16:10.729Z,9.61
2023-04-14T07:18:38.913Z,9.73
2023-04-14T07:21:06.617Z,9.88
2023-04-14T07:23:34.682Z,10.01
2023-04-14T07:26:02.379Z,10.13
2023-04-14T07:28:30.268Z,10.25
2023-04-14T07:30:58.553Z,10.38
2023-04-14T07:33:27.310Z,10.51
2023-04-14T07:36:02.998Z,10.64
2023-04-14T07:38:31.692Z,10.76
2023-04-14T07:40:59.407Z,10.90
2023-04-14T07:43:27.527Z,11.01
2023-04-14T07:45:55.316Z,11.12
2023-04-14T07:48:23.124Z,11.25
2023-04-14T07:50:50.969Z,11.34
2023-04-14T07:53:19.030Z,11.40
2023-04-14T07:55:46.810Z,11.47
2023-04-14T07:58:15.762Z,11.59
2023-04-14T08:00:43.754Z,11.72
2023-04-14T08:03:11.697Z,11.84
2023-04-14T08:05:40.115Z,12.00
2023-04-14T08:08:07.913Z,12.15
2023-04-14T08:10:36.047Z,12.23
2023-04-14T08:13:04.097Z,12.31
2023-04-14T08:15:34.174Z,12.41
2023-04-14T08:18:02.565Z,12.47
2023-04-14T08:20:30.399Z,12.55
2023-04-14T08:22:58.220Z,12.64
2023-04-14T08:25:26.030Z,12.73
2023-04-14T08:27:54.145Z,12.87
2023-04-14T08:30:22.750Z,13.01
2023-04-14T08:32:50.626Z,13.17
2023-04-14T08:35:39.630Z,13.30
2023-04-14T08:38:06.467Z,13.49
2023-04-14T08:40:34.653Z,13.64
2023-04-14T08:43:02.451Z,13.75
2023-04-14T08:45:30.468Z,13.88
2023-04-14T08:47:58.209Z,14.00
2023-04-14T08:50:26.354Z,14.12
2023-04-14T08:52:54.185Z,14.23
2023-04-14T08:55:21.936Z,14.35
2023-04-14T08:57:50.131Z,14.50
2023-04-14T09:00:18.785Z,14.67
2023-04-14T09:02:47.487Z,14.83
2023-04-14T09:05:15.659Z,14.99
2023-04-14T09:07:44.406Z,15.20
2023-04-14T09:10:12.367Z,15.39
2023-04-14T09:12:41.839Z,15.57
2023-04-14T09:15:10.327Z,15.77
2023-04-14T09:17:38.316Z,16.07
2023-04-14T09:20:38.750Z,16.36
2023-04-14T09:22:54.309Z,16.67
2023-04-14T09:25:22.406Z,16.97
2023-04-14T09:27:50.130Z,17.24
2023-04-14T09:30:18.261Z,17.36
2023-04-14T09:32:46.246Z,17.45
2023-04-14T09:35:15.035Z,17.71
2023-04-14T09:37:43.301Z,17.96
2023-04-14T09:40:11.782Z,18.16
2023-04-14T09:42:39.942Z,18.40
2023-04-14T09:45:08.585Z,18.55
2023-04-14T09:47:36.345Z,18.59
2023-04-14T09:50:04.739Z,18.63
2023-04-14T09:52:32.704Z,18.72
2023-04-14T09:55:00.696Z,18.99
2023-04-14T09:57:28.481Z,19.41
2023-04-14T09:59:56.263Z,19.97
2023-04-14T10:02:24.583Z,20.56
2023-04-14T10:04:53.078Z,21.09
2023-04-14T10:07:21.220Z,21.68
2023-04-14T10:09:49.051Z,22.27
2023-04-14T10:12:18.752Z,22.70
2023-04-14T10:14:46.701Z,23.12
2023-04-14T10:17:15.459Z,23.55
2023-04-14T10:19:43.388Z,24.03
2023-04-14T10:22:11.370Z,24.43
2023-04-14T10:24:39.733Z,24.77
2023-04-14T10:27:07.847Z,25.15
2023-04-14T10:29:36.081Z,25.49
2023-04-14T10:32:04.102Z,25.87
2023-04-14T10:34:31.951Z,26.14
2023-04-14T10:36:59.897Z,26.42
2023-04-14T10:39:27.786Z,26.74
2023-04-14T10:41:55.940Z,26.94
2023-04-14T10:44:23.907Z,27.23
2023-04-14T10:46:52.496Z,27.50
2023-04-14T10:49:20.493Z,27.77
2023-04-14T10:51:50.006Z,26.68
2023-04-14T10:54:18.843Z,24.74
2023-04-14T10:56:46.721Z,23.15
2023-04-14T10:59:17.805Z,21.94
2023-04-14T11:01:46.876Z,21.08
2023-04-14T11:04:15.143Z,20.52
2023-04-14T11:06:43.454Z,20.56
2023-04-14T11:09:11.619Z,21.49
2023-04-14T11:11:39.478Z,22.11
2023-04-14T11:14:07.840Z,22.80
2023-04-14T11:16:38.661Z,23.55
2023-04-14T11:19:08.460Z,22.86
2023-04-14T11:21:36.390Z,21.82
2023-04-14T11:24:04.118Z,21.43
2023-04-14T11:26:32.029Z,22.32
2023-04-14T11:29:02.032Z,22.06
2023-04-14T11:31:30.961Z,21.25
2023-04-14T11:33:59.045Z,20.41
2023-04-14T11:36:26.935Z,19.65
2023-04-14T11:38:54.714Z,19.12
2023-04-14T11:41:23.006Z,19.13
2023-04-14T11:43:51.568Z,20.40
2023-04-14T11:46:19.496Z,21.81
2023-04-14T11:48:47.545Z,22.87
2023-04-14T11:51:16.112Z,23.45
2023-04-14T11:53:44.397Z,24.24
2023-04-14T11:56:13.864Z,24.51
2023-04-14T11:58:41.715Z,23.63
2023-04-14T12:01:10.871Z,22.67
2023-04-14T12:03:39.642Z,21.75
2023-04-14T12:06:08.704Z,20.95
2023-04-14T12:08:37.263Z,20.66
2023-04-14T12:11:05.153Z,20.25
2023-04-14T12:13:33.442Z,20.15
2023-04-14T12:16:01.490Z,19.93
2023-04-14T12:18:29.536Z,19.47
2023-04-14T12:20:58.231Z,18.97
2023-04-14T12:23:25.973Z,18.59
2023-04-14T12:25:53.745Z,18.31
2023-04-14T12:28:21.781Z,18.12
2023-04-14T12:30:49.871Z,18.09
2023-04-14T12:33:17.774Z,18.95
2023-04-14T12:35:46.216Z,20.82
2023-04-14T12:38:14.832Z,22.57
2023-04-14T12:40:42.798Z,22.72
2023-04-14T12:43:10.910Z,22.36
2023-04-14T12:45:39.279Z,21.96
2023-04-14T12:48:07.257Z,21.56
2023-04-14T12:50:35.168Z,21.14
2023-04-14T12:53:03.677Z,20.80
2023-04-14T12:55:31.759Z,20.59
2023-04-14T12:58:01.504Z,20.85
2023-04-14T13:00:29.322Z,21.00
2023-04-14T13:02:57.417Z,20.76
2023-04-14T13:05:25.504Z,20.24
2023-04-14T13:07:53.929Z,19.76
2023-04-14T13:10:22.018Z,19.29
2023-04-14T13:12:50.169Z,18.86
2023-04-14T13:15:31.111Z,18.44
2023-04-14T13:18:07.482Z,18.08
2023-04-14T13:20:35.438Z,17.80
2023-04-14T13:23:03.271Z,17.60
2023-04-14T13:25:31.492Z,17.45
2023-04-14T13:27:59.291Z,17.28
2023-04-14T13:30:27.309Z,17.11
2023-04-14T13:32:58.682Z,16.97
2023-04-14T13:35:26.769Z,16.86
2023-04-14T13:37:57.778Z,16.79
2023-04-14T13:40:26.323Z,16.71
2023-04-14T13:42:54.472Z,16.61
2023-04-14T13:45:22.824Z,16.51
2023-04-14T13:47:50.694Z,16.47
2023-04-14T13:50:19.107Z,16.50
2023-04-14T13:52:46.976Z,16.78
2023-04-14T13:55:14.887Z,17.36
2023-04-14T13:57:43.096Z,17.82
2023-04-14T14:00:10.914Z,18.51
2023-04-14T14:02:39.920Z,19.05
2023-04-14T14:05:08.145Z,19.30
2023-04-14T14:07:36.025Z,19.54
2023-04-14T14:10:04.123Z,19.74
2023-04-14T14:12:32.471Z,19.73
2023-04-14T14:15:00.254Z,19.60
2023-04-14T14:17:28.345Z,19.48
2023-04-14T14:19:56.535Z,19.50
2023-04-14T14:22:24.742Z,19.51
2023-04-14T14:24:55.072Z,19.78
2023-04-14T14:27:26.497Z,20.19
2023-04-14T14:29:54.328Z,20.56
2023-04-14T14:32:22.215Z,20.83
2023-04-14T14:34:50.577Z,21.12
2023-04-14T14:37:19.070Z,21.52
2023-04-14T14:39:46.897Z,21.87
2023-04-14T14:42:14.621Z,22.18
2023-04-14T14:44:42.412Z,22.58
2023-04-14T14:47:11.080Z,22.81
2023-04-14T14:49:43.338Z,23.04
2023-04-14T14:52:17.081Z,23.27
2023-04-14T14:54:45.458Z,23.53
2023-04-14T14:57:13.392Z,23.73
2023-04-14T14:59:42.174Z,24.09
2023-04-14T15:02:10.239Z,24.53
2023-04-14T15:04:38.209Z,24.57
2023-04-14T15:07:06.527Z,24.39
2023-04-14T15:09:34.497Z,23.86
2023-04-14T15:12:02.453Z,23.66
2023-04-14T15:14:30.532Z,23.51
2023-04-14T15:16:58.374Z,23.40
2023-04-14T15:19:26.325Z,22.94
2023-04-14T15:21:54.761Z,22.28
2023-04-14T15:24:22.703Z,21.53
2023-04-14T15:26:50.564Z,20.74
2023-04-14T15:29:19.775Z,20.01
2023-04-14T15:31:47.573Z,19.37
2023-04-14T15:34:16.001Z,18.84
2023-04-14T15:36:43.904Z,18.34
2023-04-14T15:39:11.742Z,17.96
2023-04-14T15:41:39.493Z,17.64
2023-04-14T15:44:07.816Z,17.34
2023-04-14T15:46:35.841Z,17.05
2023-04-14T15:49:03.658Z,16.77
2023-04-14T15:51:32.268Z,16.54
2023-04-14T15:54:00.424Z,16.38
2023-04-14T15:56:28.857Z,16.17
2023-04-14T15:58:56.854Z,15.98
2023-04-14T16:01:24.787Z,15.73
2023-04-14T16:03:53.113Z,15.40
2023-04-14T16:06:20.963Z,15.11
2023-04-14T16:08:49.299Z,14.87
2023-04-14T16:11:18.028Z,14.60
2023-04-14T16:13:46.395Z,14.21
2023-04-14T16:16:14.634Z,13.63
2023-04-14T16:18:42.588Z,12.89
2023-04-14T16:21:10.918Z,12.38
2023-04-14T16:23:39.081Z,12.05
2023-04-14T16:26:07.041Z,11.87
2023-04-14T16:28:35.148Z,11.75
2023-04-14T16:31:03.094Z,11.70
2023-04-14T16:33:31.944Z,11.66
2023-04-14T16:36:00.275Z,11.67
2023-04-14T16:38:28.414Z,11.66
2023-04-14T16:40:57.614Z,11.62
2023-04-14T16:43:26.506Z,11.50
2023-04-14T16:45:54.557Z,11.40
2023-04-14T16:48:23.068Z,11.42
2023-04-14T16:50:50.893Z,11.48
2023-04-14T16:53:19.329Z,11.53
2023-04-14T16:55:47.095Z,11.55
2023-04-14T16:58:16.088Z,11.58
2023-04-14T17:00:44.560Z,11.64
2023-04-14T17:03:12.733Z,11.69
2023-04-14T17:05:41.029Z,11.71
2023-04-14T17:08:08.813Z,11.70
2023-04-14T17:10:37.465Z,11.72
2023-04-14T17:13:05.895Z,11.72
2023-04-14T17:15:33.917Z,11.72
2023-04-14T17:18:01.747Z,11.71
2023-04-14T17:20:30.758Z,11.71
2023-04-14T17:22:58.967Z,11.71
2023-04-14T17:25:27.159Z,11.72
2023-04-14T17:27:55.203Z,11.74
2023-04-14T17:30:23.097Z,11.75
2023-04-14T17:32:51.100Z,11.76
2023-04-14T17:35:19.184Z,11.73
2023-04-14T17:37:47.508Z,11.69
2023-04-14T17:40:16.134Z,11.63
2023-04-14T17:42:44.374Z,11.56
2023-04-14T17:45:12.303Z,11.49
2023-04-14T17:47:40.707Z,11.42
2023-04-14T17:50:10.113Z,11.34
2023-04-14T17:52:38.140Z,11.25
2023-04-14T17:55:07.361Z,11.17
2023-04-14T17:57:35.371Z,11.08
2023-04-14T18:00:04.730Z,11.00
2023-04-14T18:02:35.158Z,10.91
2023-04-14T18:05:04.066Z,10.85
2023-04-14T18:07:32.310Z,10.79
2023-04-14T18:10:00.151Z,10.72
2023-04-14T18:12:28.415Z,10.65
2023-04-14T18:14:57.066Z,10.59
2023-04-14T18:17:25.089Z,10.51
2023-04-14T18:19:52.964Z,10.43
2023-04-14T18:22:21.047Z,10.35
2023-04-14T18:24:49.791Z,10.25
2023-04-14T18:29:49.440Z,10.11
2023-04-14T18:32:17.495Z,10.03
2023-04-14T18:34:45.490Z,9.95
2023-04-14T18:37:14.853Z,9.86
2023-04-14T18:39:43.215Z,9.77
2023-04-14T18:42:11.718Z,9.70
2023-04-14T18:44:39.602Z,9.62
2023-04-14T18:47:07.423Z,9.57
2023-04-14T18:49:36.820Z,9.50
2023-04-14T18:52:06.127Z,9.42
2023-04-14T18:54:34.065Z,9.39
2023-04-14T18:57:03.605Z,9.35
2023-04-14T18:59:31.514Z,9.33
2023-04-14T19:01:59.875Z,9.31
2023-04-14T19:04:28.091Z,9.28
2023-04-14T19:06:55.956Z,9.24
2023-04-14T19:09:24.904Z,9.23
2023-04-14T19:11:53.326Z,9.21
2023-04-14T19:14:21.844Z,9.12
2023-04-14T19:16:50.208Z,9.00
2023-04-14T19:19:18.377Z,8.88
2023-04-14T19:21:46.175Z,8.80
2023-04-14T19:24:14.158Z,8.72
2023-04-14T19:26:42.198Z,8.65
2023-04-14T19:29:10.737Z,8.60
2023-04-14T19:31:38.773Z,8.55
2023-04-14T19:34:06.976Z,8.48
2023-04-14T19:36:35.385Z,8.42
2023-04-14T19:39:04.119Z,8.36
2023-04-14T19:41:33.064Z,8.30
2023-04-14T19:44:00.974Z,8.23
2023-04-14T19:46:28.859Z,8.18
2023-04-14T19:48:57.203Z,8.13
2023-04-14T19:51:25.045Z,8.07
2023-04-14T19:53:53.227Z,8.03
2023-04-14T19:56:23.008Z,7.98
2023-04-14T19:58:51.970Z,7.93
2023-04-14T20:01:20.924Z,7.90
2023-04-14T20:04:06.606Z,7.86
2023-04-14T20:06:37.271Z,7.82
2023-04-14T20:09:05.241Z,7.78
2023-04-14T20:11:33.086Z,7.74
2023-04-14T20:14:01.029Z,7.72
2023-04-14T20:16:29.600Z,7.69
2023-04-14T20:18:58.276Z,7.67
2023-04-14T20:21:26.195Z,7.62
2023-04-14T20:23:54.187Z,7.58
2023-04-14T20:26:23.364Z,7.53
2023-04-14T20:28:51.416Z,7.48
2023-04-14T20:31:20.068Z,7.41
2023-04-14T20:33:48.676Z,7.33
2023-04-14T20:36:16.589Z,7.29
2023-04-14T20:38:46.139Z,7.23
2023-04-14T20:41:14.107Z,7.18
2023-04-14T20:43:44.153Z,7.13
2023-04-14T20:46:12.704Z,7.07
2023-04-14T20:48:40.517Z,7.01
2023-04-14T20:51:08.808Z,6.91
2023-04-14T20:53:37.097Z,6.84
2023-04-14T20:56:04.972Z,6.75
2023-04-14T20:58:32.749Z,6.66
2023-04-14T21:01:02.444Z,6.58
2023-04-14T21:03:31.705Z,6.54
2023-04-14T21:05:59.712Z,6.51
2023-04-14T21:08:28.721Z,6.48
2023-04-14T21:11:16.353Z,6.47
2023-04-14T21:15:26.795Z,6.46
2023-04-14T21:16:32.594Z,6.46
2023-04-14T21:19:01.217Z,6.45
2023-04-14T21:21:29.666Z,6.47
2023-04-14T21:23:57.542Z,6.48
2023-04-14T21:26:25.804Z,6.49
2023-04-14T21:28:53.675Z,6.46
2023-04-14T21:31:21.937Z,6.43
2023-04-14T21:33:50.111Z,6.40
2023-04-14T21:36:19.029Z,6.35
2023-04-14T21:38:46.865Z,6.30
2023-04-14T21:41:14.793Z,6.26
2023-04-14T21:43:43.374Z,6.24
2023-04-14T21:46:11.208Z,6.20
2023-04-14T21:48:39.546Z,6.16
2023-04-14T21:51:07.916Z,6.13
2023-04-14T21:53:35.932Z,6.10
2023-04-14T21:56:09.807Z,6.09
2023-04-14T21:58:39.521Z,6.06
2023-04-14T22:01:08.182Z,6.04
2023-04-14T22:03:37.658Z,6.03
2023-04-14T22:06:05.768Z,6.03
2023-04-14T22:08:33.679Z,6.04
2023-04-14T22:11:01.736Z,6.02
2023-04-14T22:13:30.129Z,5.99
2023-04-14T22:15:58.479Z,5.96
2023-04-14T22:18:27.775Z,5.95
2023-04-14T22:20:55.856Z,5.98
2023-04-14T22:23:23.803Z,5.99
2023-04-14T22:25:52.747Z,6.01
2023-04-14T22:28:20.511Z,6.02
2023-04-14T22:30:48.978Z,6.04
2023-04-14T22:33:16.896Z,6.07
2023-04-14T22:35:44.665Z,6.05
2023-04-14T22:38:12.765Z,6.07
2023-04-14T22:40:41.052Z,6.10
2023-04-14T22:43:11.035Z,6.12
2023-04-14T22:45:38.859Z,6.12
2023-04-14T22:48:07.075Z,6.10
2023-04-14T22:50:35.492Z,6.08
2023-04-14T22:53:03.521Z,6.11
2023-04-14T22:55:31.580Z,6.13
2023-04-14T22:57:59.406Z,6.15
2023-04-14T23:00:27.310Z,6.16
2023-04-14T23:02:55.894Z,6.14
2023-04-14T23:05:23.777Z,6.09
2023-04-14T23:07:52.078Z,6.07
2023-04-14T23:10:20.451Z,6.02
2023-04-14T23:12:48.446Z,5.97
2023-04-14T23:15:16.473Z,5.93
2023-04-14T23:17:44.317Z,5.90
2023-04-14T23:20:12.094Z,5.87
2023-04-14T23:22:39.908Z,5.87
2023-04-14T23:25:07.600Z,5.87
2023-04-14T23:27:35.591Z,5.88
2023-04-14T23:30:03.466Z,5.84
2023-04-14T23:32:31.756Z,5.81
2023-04-14T23:34:59.386Z,5.80
2023-04-14T23:37:27.200Z,5.81
2023-04-14T23:39:55.779Z,5.80
2023-04-14T23:42:23.541Z,5.78
2023-04-14T23:44:51.928Z,5.77
2023-04-14T23:47:19.571Z,5.73
2023-04-14T23:49:47.593Z,5.69
2023-04-14T23:52:15.492Z,5.67
2023-04-14T23:54:44.004Z,5.65
2023-04-14T23:57:11.696Z,5.64
2023-04-14T23:59:40.281Z,5.64
